sensor_id;sensor_type;location;lat;lon;timestamp;pressure;altitude;pressure_sealevel;temperature;humidity
21234;BME280;10774;42.178;26.578;2023-02-14T00:01:49;101536.09;;;-0.88;86.09
21234;BME280;10774;42.178;26.578;2023-02-14T00:04:16;101537.91;;;-0.81;86.19
21234;BME280;10774;42.178;26.578;2023-02-14T00:06:42;101531.84;;;-0.73;85.88
21234;BME280;10774;42.178;26.578;2023-02-14T00:09:11;101539.75;;;-0.73;86.21
21234;BME280;10774;42.178;26.578;2023-02-14T00:11:38;101537.81;;;-0.93;86.52
21234;BME280;10774;42.178;26.578;2023-02-14T00:14:04;101530.78;;;-0.94;87.36
21234;BME280;10774;42.178;26.578;2023-02-14T00:16:49;101530.88;;;-0.80;87.56
21234;BME280;10774;42.178;26.578;2023-02-14T00:19:16;101525.31;;;-1.15;88.62
21234;BME280;10774;42.178;26.578;2023-02-14T00:21:42;101528.09;;;-1.00;89.14
21234;BME280;10774;42.178;26.578;2023-02-14T00:24:14;101521.91;;;-1.02;89.39
21234;BME280;10774;42.178;26.578;2023-02-14T00:26:39;101528.75;;;-1.22;89.69
21234;BME280;10774;42.178;26.578;2023-02-14T00:29:06;101537.72;;;-1.05;89.32
21234;BME280;10774;42.178;26.578;2023-02-14T00:31:33;101541.25;;;-1.03;88.96
21234;BME280;10774;42.178;26.578;2023-02-14T00:33:59;101536.88;;;-0.99;88.44
21234;BME280;10774;42.178;26.578;2023-02-14T00:36:24;101532.38;;;-1.11;88.21
21234;BME280;10774;42.178;26.578;2023-02-14T00:38:50;101523.53;;;-1.16;88.38
21234;BME280;10774;42.178;26.578;2023-02-14T00:41:15;101527.19;;;-1.05;87.84
21234;BME280;10774;42.178;26.578;2023-02-14T00:43:47;101530.75;;;-0.97;87.17
21234;BME280;10774;42.178;26.578;2023-02-14T00:46:13;101527.13;;;-1.10;87.90
21234;BME280;10774;42.178;26.578;2023-02-14T00:48:40;101523.75;;;-0.95;87.95
21234;BME280;10774;42.178;26.578;2023-02-14T00:51:06;101528.97;;;-0.98;87.63
21234;BME280;10774;42.178;26.578;2023-02-14T00:53:31;101518.47;;;-0.95;87.80
21234;BME280;10774;42.178;26.578;2023-02-14T00:55:57;101518.44;;;-0.98;88.04
21234;BME280;10774;42.178;26.578;2023-02-14T00:58:22;101520.28;;;-0.88;88.10
21234;BME280;10774;42.178;26.578;2023-02-14T01:03:23;101513.50;;;-2.28;95.62
21234;BME280;10774;42.178;26.578;2023-02-14T01:05:49;101486.00;;;-1.83;95.31
21234;BME280;10774;42.178;26.578;2023-02-14T01:08:14;101509.25;;;-2.19;94.26
21234;BME280;10774;42.178;26.578;2023-02-14T01:10:40;101490.88;;;-2.14;97.07
21234;BME280;10774;42.178;26.578;2023-02-14T01:13:06;101482.50;;;-1.79;95.53
21234;BME280;10774;42.178;26.578;2023-02-14T01:15:33;101499.63;;;-1.39;93.35
21234;BME280;10774;42.178;26.578;2023-02-14T01:18:02;101507.28;;;-1.62;92.08
21234;BME280;10774;42.178;26.578;2023-02-14T01:20:27;101504.66;;;-2.33;95.53
21234;BME280;10774;42.178;26.578;2023-02-14T01:22:53;101505.31;;;-1.81;95.10
21234;BME280;10774;42.178;26.578;2023-02-14T01:25:18;101494.94;;;-1.66;93.66
21234;BME280;10774;42.178;26.578;2023-02-14T01:27:43;101461.50;;;-1.75;92.28
21234;BME280;10774;42.178;26.578;2023-02-14T01:30:10;101486.00;;;-1.83;92.45
21234;BME280;10774;42.178;26.578;2023-02-14T01:32:35;101491.44;;;-1.65;92.37
21234;BME280;10774;42.178;26.578;2023-02-14T01:35:01;101456.19;;;-1.79;91.95
21234;BME280;10774;42.178;26.578;2023-02-14T01:37:26;101446.31;;;-2.02;92.70
21234;BME280;10774;42.178;26.578;2023-02-14T01:39:52;101463.00;;;-2.00;93.49
21234;BME280;10774;42.178;26.578;2023-02-14T01:42:17;101473.66;;;-1.88;93.64
21234;BME280;10774;42.178;26.578;2023-02-14T01:47:15;101463.31;;;-1.69;91.42
21234;BME280;10774;42.178;26.578;2023-02-14T01:49:48;101478.28;;;-1.65;91.82
21234;BME280;10774;42.178;26.578;2023-02-14T01:52:32;101479.22;;;-1.60;91.90
21234;BME280;10774;42.178;26.578;2023-02-14T01:55:05;101474.06;;;-1.48;91.35
21234;BME280;10774;42.178;26.578;2023-02-14T01:57:39;101451.13;;;-1.61;90.28
21234;BME280;10774;42.178;26.578;2023-02-14T02:00:06;101465.16;;;-1.62;91.14
21234;BME280;10774;42.178;26.578;2023-02-14T02:02:51;101414.22;;;-1.64;91.02
21234;BME280;10774;42.178;26.578;2023-02-14T02:05:17;101416.03;;;-1.63;90.19
21234;BME280;10774;42.178;26.578;2023-02-14T02:07:49;101447.72;;;-1.48;90.62
21234;BME280;10774;42.178;26.578;2023-02-14T02:10:14;101435.63;;;-1.27;89.76
21234;BME280;10774;42.178;26.578;2023-02-14T02:12:40;101418.97;;;-1.26;89.06
21234;BME280;10774;42.178;26.578;2023-02-14T02:15:06;101426.78;;;-1.34;88.44
21234;BME280;10774;42.178;26.578;2023-02-14T02:47:31;101400.75;;;-1.96;90.15
21234;BME280;10774;42.178;26.578;2023-02-14T02:55:51;101428.06;;;-1.87;89.10
21234;BME280;10774;42.178;26.578;2023-02-14T02:58:54;101414.72;;;-2.05;89.51
21234;BME280;10774;42.178;26.578;2023-02-14T03:01:33;101398.06;;;-2.05;89.85
21234;BME280;10774;42.178;26.578;2023-02-14T03:04:04;101405.28;;;-1.85;89.61
21234;BME280;10774;42.178;26.578;2023-02-14T03:07:09;101378.59;;;-2.18;89.74
21234;BME280;10774;42.178;26.578;2023-02-14T03:09:58;101378.84;;;-1.95;89.60
21234;BME280;10774;42.178;26.578;2023-02-14T03:20:56;101396.31;;;-2.03;90.60
21234;BME280;10774;42.178;26.578;2023-02-14T03:26:09;101397.44;;;-1.78;90.12
21234;BME280;10774;42.178;26.578;2023-02-14T03:28:50;101381.56;;;-1.86;89.34
21234;BME280;10774;42.178;26.578;2023-02-14T03:31:28;101386.00;;;-1.80;89.88
21234;BME280;10774;42.178;26.578;2023-02-14T03:33:56;101393.78;;;-1.93;90.00
21234;BME280;10774;42.178;26.578;2023-02-14T03:36:34;101400.22;;;-1.63;88.22
21234;BME280;10774;42.178;26.578;2023-02-14T03:39:18;101380.53;;;-2.02;88.69
21234;BME280;10774;42.178;26.578;2023-02-14T03:42:07;101389.44;;;-1.88;87.68
21234;BME280;10774;42.178;26.578;2023-02-14T03:44:36;101369.06;;;-2.08;87.30
21234;BME280;10774;42.178;26.578;2023-02-14T03:47:07;101385.19;;;-2.54;88.15
21234;BME280;10774;42.178;26.578;2023-02-14T03:49:37;101381.66;;;-2.56;89.97
21234;BME280;10774;42.178;26.578;2023-02-14T03:52:05;101352.97;;;-3.06;91.90
21234;BME280;10774;42.178;26.578;2023-02-14T03:54:33;101383.28;;;-2.67;92.62
21234;BME280;10774;42.178;26.578;2023-02-14T03:57:17;101383.56;;;-2.46;92.07
21234;BME280;10774;42.178;26.578;2023-02-14T03:59:45;101391.69;;;-2.26;91.07
21234;BME280;10774;42.178;26.578;2023-02-14T04:02:16;101360.88;;;-2.34;90.37
21234;BME280;10774;42.178;26.578;2023-02-14T04:04:45;101377.84;;;-2.09;90.23
21234;BME280;10774;42.178;26.578;2023-02-14T04:07:17;101368.13;;;-2.12;89.75
21234;BME280;10774;42.178;26.578;2023-02-14T04:09:43;101332.91;;;-2.29;90.04
21234;BME280;10774;42.178;26.578;2023-02-14T04:12:08;101367.03;;;-2.34;90.91
21234;BME280;10774;42.178;26.578;2023-02-14T04:14:34;101353.22;;;-2.13;91.04
21234;BME280;10774;42.178;26.578;2023-02-14T04:17:00;101355.03;;;-2.11;90.86
21234;BME280;10774;42.178;26.578;2023-02-14T04:19:44;101346.03;;;-2.29;91.30
21234;BME280;10774;42.178;26.578;2023-02-14T04:22:10;101354.88;;;-2.24;90.88
21234;BME280;10774;42.178;26.578;2023-02-14T04:24:35;101352.81;;;-2.48;91.77
21234;BME280;10774;42.178;26.578;2023-02-14T04:27:01;101337.97;;;-2.46;92.43
21234;BME280;10774;42.178;26.578;2023-02-14T04:32:10;101346.69;;;-2.50;92.38
21234;BME280;10774;42.178;26.578;2023-02-14T04:34:36;101324.03;;;-2.39;91.89
21234;BME280;10774;42.178;26.578;2023-02-14T04:37:03;101322.78;;;-2.70;91.02
21234;BME280;10774;42.178;26.578;2023-02-14T04:39:28;101337.22;;;-2.36;91.49
21234;BME280;10774;42.178;26.578;2023-02-14T04:41:54;101321.91;;;-2.72;91.54
21234;BME280;10774;42.178;26.578;2023-02-14T04:44:20;101321.84;;;-2.75;92.27
21234;BME280;10774;42.178;26.578;2023-02-14T04:46:45;101286.03;;;-2.67;92.36
21234;BME280;10774;42.178;26.578;2023-02-14T04:49:11;101315.34;;;-2.30;91.31
21234;BME280;10774;42.178;26.578;2023-02-14T04:51:36;101311.03;;;-2.25;90.42
21234;BME280;10774;42.178;26.578;2023-02-14T04:54:02;101306.50;;;-2.39;90.45
21234;BME280;10774;42.178;26.578;2023-02-14T04:56:27;101303.25;;;-2.16;89.23
21234;BME280;10774;42.178;26.578;2023-02-14T04:58:53;101289.72;;;-2.48;89.91
21234;BME280;10774;42.178;26.578;2023-02-14T05:01:19;101289.53;;;-2.67;90.35
21234;BME280;10774;42.178;26.578;2023-02-14T05:03:44;101304.84;;;-2.27;91.41
21234;BME280;10774;42.178;26.578;2023-02-14T05:06:10;101289.53;;;-2.68;91.80
21234;BME280;10774;42.178;26.578;2023-02-14T05:08:35;101302.13;;;-2.38;91.58
21234;BME280;10774;42.178;26.578;2023-02-14T05:11:01;101310.66;;;-2.59;92.42
21234;BME280;10774;42.178;26.578;2023-02-14T05:13:26;101292.25;;;-2.59;92.09
21234;BME280;10774;42.178;26.578;2023-02-14T05:15:53;101292.56;;;-2.31;92.03
21234;BME280;10774;42.178;26.578;2023-02-14T05:18:18;101315.56;;;-2.09;90.48
21234;BME280;10774;42.178;26.578;2023-02-14T05:20:43;101310.41;;;-1.97;89.90
21234;BME280;10774;42.178;26.578;2023-02-14T05:23:09;101274.22;;;-2.25;90.00
21234;BME280;10774;42.178;26.578;2023-02-14T05:25:41;101311.25;;;-2.02;90.58
21234;BME280;10774;42.178;26.578;2023-02-14T05:28:06;101305.19;;;-1.91;89.52
21234;BME280;10774;42.178;26.578;2023-02-14T05:30:32;101306.25;;;-1.73;88.71
21234;BME280;10774;42.178;26.578;2023-02-14T05:32:57;101301.81;;;-1.74;87.78
21234;BME280;10774;42.178;26.578;2023-02-14T05:35:23;101322.31;;;-1.35;87.38
21234;BME280;10774;42.178;26.578;2023-02-14T05:37:48;101333.91;;;-1.07;85.33
21234;BME280;10774;42.178;26.578;2023-02-14T05:40:14;101293.38;;;-1.27;84.18
21234;BME280;10774;42.178;26.578;2023-02-14T05:42:41;101323.34;;;-1.10;84.46
21234;BME280;10774;42.178;26.578;2023-02-14T05:45:07;101304.94;;;-1.02;83.72
21234;BME280;10774;42.178;26.578;2023-02-14T05:47:33;101300.59;;;-0.94;83.50
21234;BME280;10774;42.178;26.578;2023-02-14T05:49:58;101323.56;;;-0.67;82.34
21234;BME280;10774;42.178;26.578;2023-02-14T05:52:24;101333.28;;;-0.52;81.10
21234;BME280;10774;42.178;26.578;2023-02-14T05:54:49;101334.06;;;-0.78;80.89
21234;BME280;10774;42.178;26.578;2023-02-14T05:57:14;101338.41;;;-0.88;81.48
21234;BME280;10774;42.178;26.578;2023-02-14T05:59:40;101334.97;;;-0.65;81.87
21234;BME280;10774;42.178;26.578;2023-02-14T06:02:05;101330.63;;;-0.54;80.47
21234;BME280;10774;42.178;26.578;2023-02-14T06:04:31;101316.50;;;-0.71;79.83
21234;BME280;10774;42.178;26.578;2023-02-14T06:06:56;101341.19;;;-0.57;81.28
21234;BME280;10774;42.178;26.578;2023-02-14T06:09:22;101336.78;;;-0.54;80.70
21234;BME280;10774;42.178;26.578;2023-02-14T06:11:47;101331.50;;;-0.61;80.99
21234;BME280;10774;42.178;26.578;2023-02-14T06:14:13;101326.22;;;-0.60;80.46
21234;BME280;10774;42.178;26.578;2023-02-14T06:16:38;101320.09;;;-0.54;81.31
21234;BME280;10774;42.178;26.578;2023-02-14T06:19:03;101317.53;;;-0.25;80.23
21234;BME280;10774;42.178;26.578;2023-02-14T06:21:29;101299.94;;;-0.21;79.80
21234;BME280;10774;42.178;26.578;2023-02-14T06:23:54;101321.97;;;0.16;79.00
21234;BME280;10774;42.178;26.578;2023-02-14T06:26:20;101304.38;;;0.21;77.75
21234;BME280;10774;42.178;26.578;2023-02-14T06:28:45;101313.09;;;-0.32;78.14
21234;BME280;10774;42.178;26.578;2023-02-14T06:31:15;101333.41;;;-0.07;79.14
21234;BME280;10774;42.178;26.578;2023-02-14T06:33:41;101337.81;;;0.08;78.36
21234;BME280;10774;42.178;26.578;2023-02-14T06:36:07;101335.19;;;0.20;79.40
21234;BME280;10774;42.178;26.578;2023-02-14T06:38:33;101332.53;;;0.14;78.91
21234;BME280;10774;42.178;26.578;2023-02-14T06:41:05;101291.19;;;0.07;78.54
21234;BME280;10774;42.178;26.578;2023-02-14T06:43:32;101331.66;;;0.66;77.13
21234;BME280;10774;42.178;26.578;2023-02-14T06:45:57;101323.69;;;0.83;75.35
21234;BME280;10774;42.178;26.578;2023-02-14T06:48:23;101328.09;;;0.84;73.94
21234;BME280;10774;42.178;26.578;2023-02-14T06:50:48;101337.84;;;0.37;76.65
21234;BME280;10774;42.178;26.578;2023-02-14T06:53:14;101314.03;;;0.68;77.21
21234;BME280;10774;42.178;26.578;2023-02-14T06:55:39;101324.53;;;1.12;75.56
21234;BME280;10774;42.178;26.578;2023-02-14T06:58:05;101334.09;;;1.44;73.01
21234;BME280;10774;42.178;26.578;2023-02-14T07:00:30;101333.16;;;1.59;70.88
21234;BME280;10774;42.178;26.578;2023-02-14T07:02:56;101333.03;;;1.74;69.00
21234;BME280;10774;42.178;26.578;2023-02-14T07:05:21;101338.28;;;1.86;68.19
21234;BME280;10774;42.178;26.578;2023-02-14T07:07:49;101335.81;;;1.51;69.21
21234;BME280;10774;42.178;26.578;2023-02-14T07:10:15;101306.56;;;1.74;68.15
21234;BME280;10774;42.178;26.578;2023-02-14T07:12:40;101307.34;;;1.96;66.85
21234;BME280;10774;42.178;26.578;2023-02-14T07:15:10;101293.94;;;2.17;65.46
21234;BME280;10774;42.178;26.578;2023-02-14T07:17:36;101286.75;;;2.31;64.21
21234;BME280;10774;42.178;26.578;2023-02-14T07:20:02;101312.19;;;2.54;63.91
21234;BME280;10774;42.178;26.578;2023-02-14T07:22:28;101294.44;;;2.60;63.31
21234;BME280;10774;42.178;26.578;2023-02-14T07:24:53;101315.47;;;2.77;62.76
21234;BME280;10774;42.178;26.578;2023-02-14T07:27:19;101314.50;;;2.87;61.75
21234;BME280;10774;42.178;26.578;2023-02-14T07:29:44;101295.94;;;2.84;61.14
21234;BME280;10774;42.178;26.578;2023-02-14T07:32:10;101301.97;;;3.02;60.65
21234;BME280;10774;42.178;26.578;2023-02-14T07:34:35;101309.72;;;3.19;60.66
21234;BME280;10774;42.178;26.578;2023-02-14T07:37:00;101302.63;;;3.19;60.57
21234;BME280;10774;42.178;26.578;2023-02-14T07:39:26;101275.22;;;3.19;59.54
21234;BME280;10774;42.178;26.578;2023-02-14T07:41:51;101312.13;;;3.40;59.13
21234;BME280;10774;42.178;26.578;2023-02-14T07:44:17;101294.25;;;3.54;58.37
21234;BME280;10774;42.178;26.578;2023-02-14T07:46:43;101297.66;;;3.62;58.41
21234;BME280;10774;42.178;26.578;2023-02-14T07:49:08;101308.94;;;3.78;57.68
21234;BME280;10774;42.178;26.578;2023-02-14T07:51:34;101309.06;;;3.69;57.42
21234;BME280;10774;42.178;26.578;2023-02-14T07:53:59;101317.66;;;3.88;57.77
21234;BME280;10774;42.178;26.578;2023-02-14T07:56:25;101299.22;;;3.77;56.65
21234;BME280;10774;42.178;26.578;2023-02-14T07:58:51;101278.78;;;3.82;57.44
21234;BME280;10774;42.178;26.578;2023-02-14T08:01:16;101313.69;;;4.15;57.02
21234;BME280;10774;42.178;26.578;2023-02-14T08:03:42;101308.03;;;4.36;55.92
21234;BME280;10774;42.178;26.578;2023-02-14T08:06:14;101325.81;;;4.34;55.86
21234;BME280;10774;42.178;26.578;2023-02-14T08:08:39;101311.56;;;4.38;56.40
21234;BME280;10774;42.178;26.578;2023-02-14T08:11:05;101313.03;;;4.56;56.42
21234;BME280;10774;42.178;26.578;2023-02-14T08:13:30;101296.69;;;3.68;56.54
21234;BME280;10774;42.178;26.578;2023-02-14T08:15:55;101321.09;;;3.30;58.99
21234;BME280;10774;42.178;26.578;2023-02-14T08:18:38;101300.00;;;3.85;58.56
21234;BME280;10774;42.178;26.578;2023-02-14T08:21:06;101298.00;;;4.00;58.79
21234;BME280;10774;42.178;26.578;2023-02-14T08:23:32;101307.59;;;3.47;60.60
21234;BME280;10774;42.178;26.578;2023-02-14T08:25:58;101309.72;;;3.86;59.57
21234;BME280;10774;42.178;26.578;2023-02-14T08:28:24;101305.56;;;3.67;61.19
21234;BME280;10774;42.178;26.578;2023-02-14T08:30:50;101307.81;;;3.94;61.13
21234;BME280;10774;42.178;26.578;2023-02-14T08:33:17;101290.75;;;3.48;62.62
21234;BME280;10774;42.178;26.578;2023-02-14T08:35:42;101298.41;;;3.72;63.50
21234;BME280;10774;42.178;26.578;2023-02-14T08:38:08;101297.75;;;4.15;62.03
21234;BME280;10774;42.178;26.578;2023-02-14T08:40:33;101305.22;;;3.90;62.85
21234;BME280;10774;42.178;26.578;2023-02-14T08:43:00;101272.03;;;3.60;64.93
21234;BME280;10774;42.178;26.578;2023-02-14T08:45:25;101255.19;;;4.18;63.65
21234;BME280;10774;42.178;26.578;2023-02-14T08:47:51;101277.19;;;4.77;61.19
21234;BME280;10774;42.178;26.578;2023-02-14T08:50:17;101265.13;;;5.04;60.22
21234;BME280;10774;42.178;26.578;2023-02-14T08:52:43;101265.28;;;5.40;59.05
21234;BME280;10774;42.178;26.578;2023-02-14T08:55:09;101266.78;;;5.51;59.06
21234;BME280;10774;42.178;26.578;2023-02-14T08:57:35;101267.78;;;5.86;59.52
21234;BME280;10774;42.178;26.578;2023-02-14T09:00:01;101263.91;;;6.01;58.87
21234;BME280;10774;42.178;26.578;2023-02-14T09:02:27;101270.50;;;6.22;58.15
21234;BME280;10774;42.178;26.578;2023-02-14T09:04:52;101282.06;;;6.57;57.43
21234;BME280;10774;42.178;26.578;2023-02-14T09:07:17;101252.78;;;6.55;56.92
21234;BME280;10774;42.178;26.578;2023-02-14T09:09:44;101271.41;;;6.89;55.85
21234;BME280;10774;42.178;26.578;2023-02-14T09:12:10;101273.66;;;6.72;55.22
21234;BME280;10774;42.178;26.578;2023-02-14T09:14:42;101257.47;;;6.10;57.31
21234;BME280;10774;42.178;26.578;2023-02-14T09:17:11;101266.88;;;6.59;56.98
21234;BME280;10774;42.178;26.578;2023-02-14T09:19:37;101282.66;;;7.00;56.10
21234;BME280;10774;42.178;26.578;2023-02-14T09:22:04;101276.34;;;6.72;56.41
21234;BME280;10774;42.178;26.578;2023-02-14T09:24:31;101258.00;;;6.58;57.17
21234;BME280;10774;42.178;26.578;2023-02-14T09:26:57;101268.06;;;7.14;56.52
21234;BME280;10774;42.178;26.578;2023-02-14T09:29:23;101251.50;;;6.70;57.02
21234;BME280;10774;42.178;26.578;2023-02-14T09:31:51;101244.66;;;7.22;56.42
21234;BME280;10774;42.178;26.578;2023-02-14T09:34:17;101247.63;;;7.72;55.36
21234;BME280;10774;42.178;26.578;2023-02-14T09:36:42;101212.34;;;7.31;54.93
21234;BME280;10774;42.178;26.578;2023-02-14T09:39:26;101237.03;;;7.39;55.32
21234;BME280;10774;42.178;26.578;2023-02-14T09:49:40;101222.03;;;7.35;55.61
21234;BME280;10774;42.178;26.578;2023-02-14T09:52:09;101213.47;;;7.80;54.79
21234;BME280;10774;42.178;26.578;2023-02-14T09:54:38;101193.38;;;7.96;54.24
21234;BME280;10774;42.178;26.578;2023-02-14T09:57:20;101212.09;;;8.49;53.26
21234;BME280;10774;42.178;26.578;2023-02-14T10:00:02;101206.19;;;8.11;53.36
21234;BME280;10774;42.178;26.578;2023-02-14T10:02:54;101199.06;;;8.63;53.55
21234;BME280;10774;42.178;26.578;2023-02-14T10:05:26;101198.66;;;8.99;52.00
21234;BME280;10774;42.178;26.578;2023-02-14T10:15:42;101169.25;;;9.21;52.60
21234;BME280;10774;42.178;26.578;2023-02-14T10:18:26;101148.69;;;9.22;51.27
21234;BME280;10774;42.178;26.578;2023-02-14T10:20:57;101168.91;;;9.52;51.24
21234;BME280;10774;42.178;26.578;2023-02-14T10:23:44;101164.31;;;9.78;51.03
21234;BME280;10774;42.178;26.578;2023-02-14T10:26:17;101154.28;;;9.61;50.66
21234;BME280;10774;42.178;26.578;2023-02-14T10:28:46;101154.97;;;9.44;50.49
21234;BME280;10774;42.178;26.578;2023-02-14T10:31:50;101144.53;;;9.58;50.81
21234;BME280;10774;42.178;26.578;2023-02-14T10:44:49;101121.28;;;9.59;48.41
21234;BME280;10774;42.178;26.578;2023-02-14T10:50:10;101117.00;;;8.87;50.76
21234;BME280;10774;42.178;26.578;2023-02-14T10:52:39;101115.59;;;9.23;50.99
21234;BME280;10774;42.178;26.578;2023-02-14T10:55:19;101114.94;;;9.39;49.78
21234;BME280;10774;42.178;26.578;2023-02-14T10:57:50;101123.09;;;8.91;50.04
21234;BME280;10774;42.178;26.578;2023-02-14T11:00:34;101112.72;;;9.05;49.58
21234;BME280;10774;42.178;26.578;2023-02-14T11:03:06;101117.13;;;9.30;48.99
21234;BME280;10774;42.178;26.578;2023-02-14T11:05:38;101104.69;;;9.05;48.85
21234;BME280;10774;42.178;26.578;2023-02-14T11:10:40;101095.31;;;9.39;48.46
21234;BME280;10774;42.178;26.578;2023-02-14T11:15:51;101095.13;;;9.65;48.36
21234;BME280;10774;42.178;26.578;2023-02-14T11:18:23;101078.81;;;9.92;47.67
21234;BME280;10774;42.178;26.578;2023-02-14T11:23:25;101081.03;;;9.60;48.45
21234;BME280;10774;42.178;26.578;2023-02-14T11:25:53;101051.59;;;9.59;48.58
21234;BME280;10774;42.178;26.578;2023-02-14T11:28:20;101073.41;;;9.72;48.82
21234;BME280;10774;42.178;26.578;2023-02-14T11:30:47;101059.34;;;10.07;47.43
21234;BME280;10774;42.178;26.578;2023-02-14T11:33:33;101058.13;;;10.55;46.36
21234;BME280;10774;42.178;26.578;2023-02-14T11:36:03;101053.56;;;10.37;46.35
21234;BME280;10774;42.178;26.578;2023-02-14T11:38:31;101048.63;;;10.28;45.74
21234;BME280;10774;42.178;26.578;2023-02-14T11:41:03;101033.25;;;10.31;45.46
21234;BME280;10774;42.178;26.578;2023-02-14T11:43:48;101052.25;;;10.27;46.27
21234;BME280;10774;42.178;26.578;2023-02-14T11:49:02;101046.84;;;10.06;44.87
21234;BME280;10774;42.178;26.578;2023-02-14T11:51:42;101046.59;;;9.72;45.99
21234;BME280;10774;42.178;26.578;2023-02-14T11:54:56;101045.84;;;9.68;46.37
21234;BME280;10774;42.178;26.578;2023-02-14T11:57:32;101027.84;;;10.12;45.52
21234;BME280;10774;42.178;26.578;2023-02-14T12:00:00;101025.66;;;10.20;45.02
21234;BME280;10774;42.178;26.578;2023-02-14T12:05:52;101032.78;;;10.01;45.44
21234;BME280;10774;42.178;26.578;2023-02-14T12:08:12;101017.50;;;9.83;46.55
21234;BME280;10774;42.178;26.578;2023-02-14T12:10:39;101012.59;;;9.52;46.56
21234;BME280;10774;42.178;26.578;2023-02-14T12:15:54;101019.91;;;9.04;46.84
21234;BME280;10774;42.178;26.578;2023-02-14T12:24:04;101022.59;;;10.30;43.79
21234;BME280;10774;42.178;26.578;2023-02-14T12:26:51;101016.00;;;10.74;43.09
21234;BME280;10774;42.178;26.578;2023-02-14T12:32:27;101005.16;;;11.67;42.17
21234;BME280;10774;42.178;26.578;2023-02-14T12:40:47;101009.13;;;10.50;43.08
21234;BME280;10774;42.178;26.578;2023-02-14T12:44:16;101013.13;;;9.80;44.04
21234;BME280;10774;42.178;26.578;2023-02-14T12:57:01;101020.31;;;10.00;43.31
21234;BME280;10774;42.178;26.578;2023-02-14T13:05:21;101001.56;;;10.96;42.92
21234;BME280;10774;42.178;26.578;2023-02-14T13:07:59;101004.50;;;11.45;42.40
21234;BME280;10774;42.178;26.578;2023-02-14T13:13:36;100995.19;;;10.80;42.90
21234;BME280;10774;42.178;26.578;2023-02-14T13:16:25;101012.25;;;10.20;44.16
21234;BME280;10774;42.178;26.578;2023-02-14T13:19:34;101012.94;;;10.05;43.96
21234;BME280;10774;42.178;26.578;2023-02-14T13:22:05;100995.47;;;10.36;43.38
21234;BME280;10774;42.178;26.578;2023-02-14T13:24:40;100999.53;;;10.63;43.86
21234;BME280;10774;42.178;26.578;2023-02-14T13:27:07;101004.50;;;11.45;42.30
21234;BME280;10774;42.178;26.578;2023-02-14T13:29:47;101001.50;;;10.97;42.51
21234;BME280;10774;42.178;26.578;2023-02-14T13:32:16;101018.56;;;10.78;42.48
21234;BME280;10774;42.178;26.578;2023-02-14T13:34:44;101008.78;;;10.18;43.09
21234;BME280;10774;42.178;26.578;2023-02-14T13:37:12;101014.81;;;10.03;43.62
21234;BME280;10774;42.178;26.578;2023-02-14T13:39:47;101003.94;;;10.06;43.79
21234;BME280;10774;42.178;26.578;2023-02-14T13:48:10;101000.81;;;9.76;44.50
21234;BME280;10774;42.178;26.578;2023-02-14T13:50:38;101019.25;;;10.04;43.81
21234;BME280;10774;42.178;26.578;2023-02-14T13:53:04;101002.78;;;10.12;43.34
21234;BME280;10774;42.178;26.578;2023-02-14T13:55:35;101003.31;;;9.81;44.17
21234;BME280;10774;42.178;26.578;2023-02-14T13:58:17;100984.78;;;9.34;44.50
21234;BME280;10774;42.178;26.578;2023-02-14T14:00:50;100995.50;;;9.95;44.39
21234;BME280;10774;42.178;26.578;2023-02-14T14:10:49;101026.63;;;9.79;44.50
21234;BME280;10774;42.178;26.578;2023-02-14T14:21:37;101026.97;;;9.29;45.42
21234;BME280;10774;42.178;26.578;2023-02-14T14:24:32;101025.44;;;9.43;45.87
21234;BME280;10774;42.178;26.578;2023-02-14T14:31:57;101036.22;;;8.76;46.22
21234;BME280;10774;42.178;26.578;2023-02-14T14:34:25;101028.44;;;8.70;46.74
21234;BME280;10774;42.178;26.578;2023-02-14T14:37:05;101003.91;;;8.34;47.34
21234;BME280;10774;42.178;26.578;2023-02-14T14:42:44;101015.69;;;8.77;46.34
21234;BME280;10774;42.178;26.578;2023-02-14T14:45:22;101009.59;;;8.50;46.45
21234;BME280;10774;42.178;26.578;2023-02-14T14:47:51;101031.97;;;8.47;46.87
21234;BME280;10774;42.178;26.578;2023-02-14T14:50:24;101021.50;;;8.16;47.23
21234;BME280;10774;42.178;26.578;2023-02-14T14:52:56;101004.25;;;8.25;47.07
21234;BME280;10774;42.178;26.578;2023-02-14T14:55:28;101020.41;;;8.22;47.46
21234;BME280;10774;42.178;26.578;2023-02-14T14:57:57;101007.25;;;8.16;47.78
21234;BME280;10774;42.178;26.578;2023-02-14T15:00:29;101036.34;;;8.25;48.21
21234;BME280;10774;42.178;26.578;2023-02-14T15:05:36;101020.09;;;8.06;48.30
21234;BME280;10774;42.178;26.578;2023-02-14T15:10:52;101032.66;;;7.79;48.82
21234;BME280;10774;42.178;26.578;2023-02-14T15:13:31;101021.41;;;7.69;48.91
21234;BME280;10774;42.178;26.578;2023-02-14T15:16:40;101023.59;;;7.83;49.07
21234;BME280;10774;42.178;26.578;2023-02-14T15:19:09;101000.97;;;7.68;49.35
21234;BME280;10774;42.178;26.578;2023-02-14T15:21:36;101027.53;;;7.73;49.05
21234;BME280;10774;42.178;26.578;2023-02-14T15:24:10;101031.13;;;7.72;49.37
21234;BME280;10774;42.178;26.578;2023-02-14T15:26:37;101008.53;;;7.55;49.48
21234;BME280;10774;42.178;26.578;2023-02-14T15:29:05;101024.66;;;7.26;49.91
21234;BME280;10774;42.178;26.578;2023-02-14T15:31:34;101034.03;;;7.11;50.43
21234;BME280;10774;42.178;26.578;2023-02-14T15:34:01;101022.56;;;7.09;50.80
21234;BME280;10774;42.178;26.578;2023-02-14T15:36:29;101018.50;;;6.97;50.94
21234;BME280;10774;42.178;26.578;2023-02-14T15:38:57;101036.00;;;6.78;51.72
21234;BME280;10774;42.178;26.578;2023-02-14T15:41:24;101040.38;;;6.80;51.72
21234;BME280;10774;42.178;26.578;2023-02-14T15:43:52;101022.19;;;6.64;51.85
21234;BME280;10774;42.178;26.578;2023-02-14T15:46:36;101023.44;;;6.52;52.31
21234;BME280;10774;42.178;26.578;2023-02-14T15:49:10;101036.25;;;6.70;52.05